createdAt,value
2022-10-28T00:00:56.332Z,8.93
2022-10-28T00:03:23.085Z,8.82
2022-10-28T00:05:49.911Z,9.90
2022-10-28T00:08:16.698Z,9.73
2022-10-28T00:10:45.702Z,10.73
2022-10-28T00:13:12.411Z,11.35
2022-10-28T00:15:39.126Z,11.32
2022-10-28T00:18:05.947Z,10.20
2022-10-28T00:20:32.657Z,10.30
2022-10-28T00:22:59.375Z,9.68
2022-10-28T00:25:26.133Z,10.73
2022-10-28T00:27:53.324Z,10.23
2022-10-28T00:30:20.561Z,10.23
2022-10-28T00:32:47.432Z,9.60
2022-10-28T00:35:14.271Z,9.23
2022-10-28T00:37:41.040Z,9.30
2022-10-28T00:40:08.564Z,8.93
2022-10-28T00:42:35.513Z,8.43
2022-10-28T00:45:02.962Z,9.43
2022-10-28T00:47:45.329Z,8.98
2022-10-28T00:50:15.018Z,8.25
2022-10-28T00:52:45.238Z,8.27
2022-10-28T00:55:12.980Z,8.18
2022-10-28T00:57:41.660Z,7.88
2022-10-28T01:00:09.516Z,8.02
2022-10-28T01:02:48.407Z,7.65
2022-10-28T01:05:20.558Z,8.57
2022-10-28T01:07:48.079Z,8.30
2022-10-28T01:10:15.492Z,7.75
2022-10-28T01:12:58.385Z,7.63
2022-10-28T01:15:38.011Z,7.25
2022-10-28T01:18:19.480Z,7.40
2022-10-28T01:21:04.688Z,7.22
2022-10-28T01:23:59.746Z,8.13
2022-10-28T01:26:49.129Z,7.88
2022-10-28T01:29:15.784Z,7.43
2022-10-28T01:31:57.355Z,7.93
2022-10-28T01:34:58.086Z,8.02
2022-10-28T01:37:47.300Z,7.60
2022-10-28T01:40:27.701Z,7.70
2022-10-28T01:43:18.722Z,8.20
2022-10-28T01:45:58.120Z,8.15
2022-10-28T01:48:41.246Z,7.13
2022-10-28T01:51:13.952Z,7.85
2022-10-28T01:53:44.153Z,8.02
2022-10-28T01:56:15.625Z,7.55
2022-10-28T01:58:44.129Z,7.20
2022-10-28T02:01:12.201Z,7.43
2022-10-28T02:06:15.532Z,7.07
2022-10-28T02:09:01.088Z,7.20
2022-10-28T02:11:36.716Z,6.85
2022-10-28T02:14:25.064Z,6.15
2022-10-28T02:17:01.760Z,6.07
2022-10-28T02:19:52.979Z,6.07
2022-10-28T02:22:29.222Z,5.90
2022-10-28T02:25:20.544Z,6.55
2022-10-28T02:30:51.323Z,7.03
2022-10-28T02:33:23.677Z,6.72
2022-10-28T02:35:55.784Z,6.25
2022-10-28T02:38:31.035Z,6.88
2022-10-28T02:41:02.282Z,6.43
2022-10-28T02:43:32.991Z,6.68
2022-10-28T02:46:03.395Z,6.63
2022-10-28T02:48:47.570Z,6.50
2022-10-28T02:51:19.959Z,6.50
2022-10-28T02:54:14.291Z,5.70
2022-10-28T02:57:04.751Z,5.63
2022-10-28T02:59:31.453Z,5.75
2022-10-28T03:01:58.268Z,5.60
2022-10-28T03:04:25.429Z,6.20
2022-10-28T03:06:52.139Z,5.65
2022-10-28T03:09:18.805Z,4.93
2022-10-28T03:11:45.538Z,4.68
2022-10-28T03:14:14.650Z,6.28
2022-10-28T03:16:42.286Z,7.97
2022-10-28T03:21:40.801Z,6.90
2022-10-28T03:24:07.631Z,6.80
2022-10-28T03:26:34.379Z,5.32
2022-10-28T03:29:01.115Z,5.03
2022-10-28T03:31:27.966Z,4.72
2022-10-28T03:33:54.816Z,4.40
2022-10-28T03:36:24.662Z,4.57
2022-10-28T03:38:51.453Z,4.43
2022-10-28T03:41:18.155Z,4.07
2022-10-28T03:43:44.950Z,4.40
2022-10-28T03:46:11.657Z,4.72
2022-10-28T03:48:38.489Z,4.65
2022-10-28T03:51:05.421Z,5.78
2022-10-28T03:53:32.160Z,5.22
2022-10-28T03:56:01.992Z,5.50
2022-10-28T03:58:28.864Z,6.63
2022-10-28T04:00:56.781Z,6.03
2022-10-28T04:03:25.030Z,5.90
2022-10-28T04:05:51.726Z,4.75
2022-10-28T04:08:19.935Z,4.97
2022-10-28T04:13:15.328Z,3.80
2022-10-28T04:15:42.101Z,3.83
2022-10-28T04:18:09.159Z,4.10
2022-10-28T04:20:35.892Z,3.60
2022-10-28T04:23:03.218Z,3.92
2022-10-28T04:25:30.244Z,4.00
2022-10-28T04:27:57.131Z,5.32
2022-10-28T04:30:24.469Z,5.63
2022-10-28T04:32:51.147Z,5.43
2022-10-28T04:35:18.039Z,5.70
2022-10-28T04:37:44.719Z,6.68
2022-10-28T04:40:11.925Z,5.47
2022-10-28T04:42:38.619Z,5.75
2022-10-28T04:45:05.953Z,4.85
2022-10-28T04:47:32.666Z,4.47
2022-10-28T04:49:59.486Z,4.30
2022-10-28T04:52:26.235Z,4.60
2022-10-28T04:54:52.950Z,4.50
2022-10-28T04:57:19.710Z,4.30
2022-10-28T04:59:46.766Z,4.65
2022-10-28T05:02:13.998Z,4.77
2022-10-28T05:04:40.743Z,5.85
2022-10-28T05:07:07.529Z,5.03
2022-10-28T05:09:34.268Z,5.45
2022-10-28T05:12:01.039Z,5.28
2022-10-28T05:14:27.817Z,5.25
2022-10-28T05:16:54.622Z,7.00
2022-10-28T05:19:21.469Z,6.28
2022-10-28T05:21:48.171Z,6.90
2022-10-28T05:24:14.958Z,7.15
2022-10-28T05:26:41.650Z,7.65
2022-10-28T05:29:08.368Z,5.72
2022-10-28T05:31:35.164Z,5.32
2022-10-28T05:34:01.953Z,5.57
2022-10-28T05:36:28.677Z,5.55
2022-10-28T05:38:55.418Z,4.97
2022-10-28T05:41:25.146Z,5.90
2022-10-28T05:43:53.068Z,7.03
2022-10-28T05:46:19.960Z,5.55
2022-10-28T05:48:46.704Z,5.03
2022-10-28T05:51:13.489Z,5.10
2022-10-28T05:53:41.922Z,5.57
2022-10-28T05:56:08.990Z,5.30
2022-10-28T05:58:35.725Z,5.75
2022-10-28T06:01:05.941Z,5.57
2022-10-28T06:03:32.721Z,5.63
2022-10-28T06:05:59.605Z,5.88
2022-10-28T06:08:26.848Z,5.00
2022-10-28T06:10:53.278Z,5.25
2022-10-28T06:13:20.029Z,5.88
2022-10-28T06:15:54.983Z,5.70
2022-10-28T06:18:22.734Z,6.38
2022-10-28T06:20:54.441Z,5.47
2022-10-28T06:23:21.805Z,6.53
2022-10-28T06:25:49.100Z,6.87
2022-10-28T06:28:18.367Z,7.87
2022-10-28T06:30:45.082Z,6.40
2022-10-28T06:33:11.875Z,6.68
2022-10-28T06:35:38.627Z,5.50
2022-10-28T06:38:08.486Z,5.30
2022-10-28T06:40:36.130Z,5.55
2022-10-28T06:43:05.815Z,5.28
2022-10-28T06:45:33.876Z,5.68
2022-10-28T06:48:05.010Z,7.18
2022-10-28T06:50:33.735Z,7.05
2022-10-28T06:53:00.673Z,6.97
2022-10-28T06:55:28.841Z,7.65
2022-10-28T06:58:00.894Z,7.65
2022-10-28T07:03:01.762Z,7.03
2022-10-28T07:05:28.996Z,7.63
2022-10-28T07:07:56.025Z,7.93
2022-10-28T07:10:22.989Z,8.98
2022-10-28T07:12:49.682Z,8.82
2022-10-28T07:15:16.449Z,8.63
2022-10-28T07:17:43.168Z,9.05
2022-10-28T07:20:10.704Z,9.95
2022-10-28T07:22:37.537Z,9.98
2022-10-28T07:25:04.496Z,10.90
2022-10-28T07:27:31.306Z,12.80
2022-10-28T07:29:58.006Z,14.02
2022-10-28T07:32:24.784Z,14.77
2022-10-28T07:34:51.473Z,14.52
2022-10-28T07:37:18.276Z,16.27
2022-10-28T07:39:45.116Z,16.50
2022-10-28T07:42:11.859Z,17.73
2022-10-28T07:44:39.629Z,18.35
2022-10-28T07:47:06.894Z,17.25
2022-10-28T07:49:33.714Z,18.70
2022-10-28T07:52:00.785Z,17.23
2022-10-28T07:54:28.897Z,16.65
2022-10-28T07:56:55.711Z,15.90
2022-10-28T07:59:26.772Z,20.90
2022-10-28T08:01:54.445Z,17.75
2022-10-28T08:04:21.227Z,15.57
2022-10-28T08:06:48.011Z,14.75
2022-10-28T08:09:15.879Z,13.73
2022-10-28T08:11:42.559Z,15.55
2022-10-28T08:14:09.253Z,12.73
2022-10-28T08:16:35.967Z,12.07
2022-10-28T08:19:07.480Z,10.93
2022-10-28T08:21:34.605Z,9.68
2022-10-28T08:24:01.347Z,7.93
2022-10-28T08:26:28.028Z,7.78
2022-10-28T08:28:54.781Z,6.90
2022-10-28T08:31:21.499Z,6.30
2022-10-28T08:33:48.196Z,5.85
2022-10-28T08:36:16.593Z,5.40
2022-10-28T08:41:15.904Z,5.10
2022-10-28T08:44:04.013Z,4.60
2022-10-28T08:46:55.163Z,4.78
2022-10-28T08:49:23.833Z,4.55
2022-10-28T08:52:16.809Z,4.53
2022-10-28T08:54:47.386Z,4.40
2022-10-28T08:57:20.505Z,4.00
2022-10-28T08:59:51.994Z,4.40
2022-10-28T09:02:25.078Z,3.95
2022-10-28T09:05:19.084Z,3.90
2022-10-28T09:07:45.997Z,3.72
2022-10-28T09:10:17.554Z,3.90
2022-10-28T09:12:57.219Z,3.45
2022-10-28T09:15:28.556Z,3.95
2022-10-28T09:18:08.450Z,3.65
2022-10-28T09:20:52.329Z,3.90
2022-10-28T09:23:25.034Z,4.20
2022-10-28T09:26:20.114Z,3.50
2022-10-28T09:28:58.007Z,3.83
2022-10-28T09:33:59.455Z,3.33
2022-10-28T09:36:34.807Z,3.20
2022-10-28T09:39:05.202Z,3.10
2022-10-28T09:41:38.842Z,3.25
2022-10-28T09:44:28.108Z,3.30
2022-10-28T09:47:00.930Z,3.50
2022-10-28T09:49:37.776Z,4.25
2022-10-28T09:52:19.258Z,3.30
2022-10-28T09:54:52.450Z,3.10
2022-10-28T09:57:20.623Z,3.13
2022-10-28T09:59:47.609Z,3.13
2022-10-28T10:02:36.058Z,3.22
2022-10-28T10:05:03.794Z,2.67
2022-10-28T10:07:35.632Z,3.45
2022-10-28T10:10:16.705Z,2.90
2022-10-28T10:12:45.547Z,3.05
2022-10-28T10:15:23.710Z,2.75
2022-10-28T10:17:51.520Z,2.70
2022-10-28T10:20:20.607Z,3.05
2022-10-28T10:22:49.145Z,2.38
2022-10-28T10:25:18.814Z,3.00
2022-10-28T10:28:04.464Z,2.80
2022-10-28T10:30:49.223Z,3.00
2022-10-28T10:33:25.285Z,2.70
2022-10-28T10:36:05.125Z,2.83
2022-10-28T10:38:32.690Z,2.65
2022-10-28T10:40:59.427Z,2.70
2022-10-28T10:43:34.159Z,2.75
2022-10-28T10:46:05.081Z,2.67
2022-10-28T10:48:36.149Z,2.63
2022-10-28T10:51:07.862Z,3.03
2022-10-28T10:53:36.459Z,2.40
2022-10-28T10:56:09.238Z,2.95
2022-10-28T10:58:40.417Z,2.45
2022-10-28T11:01:09.351Z,2.47
2022-10-28T11:03:54.882Z,2.95
2022-10-28T11:06:27.679Z,2.67
2022-10-28T11:08:58.313Z,2.88
2022-10-28T11:11:45.709Z,3.20
2022-10-28T11:14:13.329Z,2.70
2022-10-28T11:16:55.071Z,3.47
2022-10-28T11:19:30.820Z,3.80
2022-10-28T11:22:21.366Z,2.78
2022-10-28T11:24:50.846Z,6.38
2022-10-28T11:27:42.155Z,7.35
2022-10-28T11:30:16.894Z,2.80
2022-10-28T11:33:29.649Z,3.03
2022-10-28T11:36:20.290Z,2.97
2022-10-28T11:39:04.336Z,3.60
2022-10-28T11:42:04.808Z,2.70
2022-10-28T11:44:49.213Z,4.30
2022-10-28T11:47:21.614Z,2.80
2022-10-28T11:50:16.191Z,2.72
2022-10-28T11:53:01.666Z,2.80
2022-10-28T11:55:49.307Z,2.72
2022-10-28T11:58:45.298Z,2.55
2022-10-28T12:01:40.141Z,2.85
2022-10-28T12:04:12.586Z,2.50
2022-10-28T12:06:57.466Z,2.30
2022-10-28T12:09:50.691Z,2.60
2022-10-28T12:12:23.293Z,2.55
2022-10-28T12:15:19.355Z,2.40
2022-10-28T12:17:55.267Z,2.70
2022-10-28T12:20:35.710Z,2.70
2022-10-28T12:23:09.922Z,2.42
2022-10-28T12:25:41.945Z,3.00
2022-10-28T12:28:20.225Z,2.40
2022-10-28T12:30:48.684Z,2.63
2022-10-28T12:33:34.853Z,2.97
2022-10-28T12:36:04.625Z,2.70
2022-10-28T12:38:45.214Z,2.17
2022-10-28T12:41:21.434Z,2.42
2022-10-28T12:43:54.988Z,3.03
2022-10-28T12:46:39.139Z,2.35
2022-10-28T12:49:16.465Z,2.75
2022-10-28T12:51:43.210Z,2.60
2022-10-28T12:54:18.935Z,3.07
2022-10-28T12:57:04.189Z,3.67
2022-10-28T12:59:43.858Z,3.00
2022-10-28T13:02:26.406Z,2.50
2022-10-28T13:04:53.174Z,2.80
2022-10-28T13:07:58.806Z,2.80
2022-10-28T13:10:57.657Z,2.77
2022-10-28T13:13:49.637Z,2.50
2022-10-28T13:16:32.839Z,2.33
2022-10-28T13:19:14.409Z,2.22
2022-10-28T13:22:07.249Z,2.30
2022-10-28T13:24:37.189Z,2.28
2022-10-28T13:27:05.455Z,2.47
2022-10-28T13:29:34.806Z,2.47
2022-10-28T13:32:01.928Z,2.67
2022-10-28T13:34:34.692Z,2.13
2022-10-28T13:37:04.487Z,2.40
2022-10-28T13:39:34.267Z,2.70
2022-10-28T13:42:12.961Z,2.13
2022-10-28T13:45:01.365Z,2.30
2022-10-28T13:47:36.211Z,2.22
2022-10-28T13:50:06.146Z,2.38
2022-10-28T13:52:34.866Z,2.40
2022-10-28T13:55:27.716Z,3.25
2022-10-28T13:58:04.859Z,2.47
2022-10-28T14:00:31.521Z,2.20
2022-10-28T14:03:24.298Z,2.42
2022-10-28T14:05:54.248Z,2.40
2022-10-28T14:08:38.196Z,2.30
2022-10-28T14:11:14.357Z,2.40
2022-10-28T14:13:49.300Z,2.10
2022-10-28T14:16:37.016Z,2.40
2022-10-28T14:19:20.140Z,2.53
2022-10-28T14:21:53.541Z,2.38
2022-10-28T14:24:38.035Z,2.37
2022-10-28T14:27:08.043Z,2.28
2022-10-28T14:29:49.213Z,2.67
2022-10-28T14:32:30.916Z,2.53
2022-10-28T14:35:15.772Z,2.88
2022-10-28T14:38:23.859Z,2.72
2022-10-28T14:41:04.807Z,2.35
2022-10-28T14:43:53.252Z,2.58
2022-10-28T14:46:51.746Z,2.38
2022-10-28T14:49:26.093Z,2.42
2022-10-28T14:51:54.277Z,2.55
2022-10-28T14:54:39.693Z,2.70
2022-10-28T14:57:08.690Z,2.72
2022-10-28T15:02:14.023Z,3.55
2022-10-28T15:04:43.742Z,3.40
2022-10-28T15:07:19.296Z,3.50
2022-10-28T15:09:53.544Z,3.72
2022-10-28T15:12:23.790Z,3.17
2022-10-28T15:14:55.832Z,3.40
2022-10-28T15:17:28.243Z,3.65
2022-10-28T15:19:57.546Z,3.50
2022-10-28T15:22:25.481Z,4.15
2022-10-28T15:24:57.503Z,5.15
2022-10-28T15:27:27.040Z,7.35
2022-10-28T15:29:55.743Z,5.18
2022-10-28T15:32:22.400Z,4.80
2022-10-28T15:34:49.660Z,4.20
2022-10-28T15:37:18.192Z,4.30
2022-10-28T15:39:46.479Z,4.35
2022-10-28T15:42:28.331Z,5.05
2022-10-28T15:44:58.973Z,6.57
2022-10-28T15:47:36.904Z,7.05
2022-10-28T15:52:53.687Z,6.25
2022-10-28T15:55:35.823Z,5.72
2022-10-28T15:58:19.340Z,5.45
2022-10-28T16:00:54.294Z,4.75
2022-10-28T16:03:47.454Z,5.72
2022-10-28T16:06:34.618Z,6.50
2022-10-28T16:09:17.923Z,5.88
2022-10-28T16:11:54.357Z,6.85
2022-10-28T16:14:32.483Z,8.50
2022-10-28T16:17:15.091Z,17.80
2022-10-28T16:19:59.955Z,8.65
2022-10-28T16:22:28.969Z,10.15
2022-10-28T16:24:56.387Z,7.32
2022-10-28T16:27:26.151Z,5.38
2022-10-28T16:29:53.449Z,4.38
2022-10-28T16:32:32.763Z,4.63
2022-10-28T16:35:02.016Z,4.30
2022-10-28T16:37:32.704Z,4.15
2022-10-28T16:39:59.777Z,5.25
2022-10-28T16:42:27.143Z,3.78
2022-10-28T16:44:53.843Z,4.03
2022-10-28T16:47:25.581Z,5.57
2022-10-28T16:49:56.125Z,5.60
2022-10-28T16:52:27.497Z,5.10
2022-10-28T16:54:54.568Z,5.82
2022-10-28T16:57:25.393Z,5.40
2022-10-28T16:59:52.918Z,5.50
2022-10-28T17:02:26.975Z,5.10
2022-10-28T17:04:53.894Z,5.53
2022-10-28T17:07:20.636Z,5.07
2022-10-28T17:09:52.013Z,4.72
2022-10-28T17:12:21.178Z,5.40
2022-10-28T17:14:48.028Z,6.60
2022-10-28T17:17:15.171Z,6.40
2022-10-28T17:19:45.787Z,10.93
2022-10-28T17:22:13.680Z,16.77
2022-10-28T17:24:43.936Z,15.60
2022-10-28T17:27:15.177Z,19.63
2022-10-28T17:29:42.539Z,19.55
2022-10-28T17:32:09.610Z,17.90
2022-10-28T17:34:39.258Z,16.63
2022-10-28T17:37:07.556Z,13.15
2022-10-28T17:39:36.716Z,13.90
2022-10-28T17:42:03.918Z,13.32
2022-10-28T17:44:32.638Z,12.30
2022-10-28T17:47:02.434Z,12.50
2022-10-28T17:49:29.990Z,12.55
2022-10-28T17:51:56.741Z,12.00
2022-10-28T17:54:26.629Z,12.70
2022-10-28T17:56:53.614Z,10.82
2022-10-28T17:59:20.341Z,12.40
2022-10-28T18:01:47.169Z,12.65
2022-10-28T18:04:14.159Z,12.95
2022-10-28T18:06:40.861Z,13.50
2022-10-28T18:09:12.095Z,12.10
2022-10-28T18:11:39.962Z,12.85
2022-10-28T18:14:06.882Z,13.35
2022-10-28T18:16:38.419Z,24.95
2022-10-28T18:19:06.408Z,15.50
2022-10-28T18:21:34.502Z,22.83
2022-10-28T18:26:33.245Z,16.52
2022-10-28T18:29:04.009Z,16.70
2022-10-28T18:31:33.540Z,26.45
2022-10-28T18:34:01.780Z,15.77
2022-10-28T18:36:33.962Z,17.77
2022-10-28T18:39:01.724Z,14.98
2022-10-28T18:41:30.510Z,14.90
2022-10-28T18:43:59.488Z,15.00
2022-10-28T18:46:27.480Z,14.05
2022-10-28T18:48:56.325Z,13.73
2022-10-28T18:51:25.617Z,13.32
2022-10-28T18:53:52.414Z,14.43
2022-10-28T18:56:21.734Z,12.82
2022-10-28T18:58:49.284Z,13.07
2022-10-28T19:01:19.036Z,12.93
2022-10-28T19:03:48.191Z,12.82
2022-10-28T19:06:16.379Z,12.65
2022-10-28T19:11:11.995Z,11.98
2022-10-28T19:13:40.788Z,11.80
2022-10-28T19:16:08.484Z,11.25
2022-10-28T19:18:38.122Z,12.63
2022-10-28T19:21:08.119Z,12.02
2022-10-28T19:23:34.926Z,11.90
2022-10-28T19:26:04.818Z,12.23
2022-10-28T19:28:40.126Z,12.73
2022-10-28T19:31:11.957Z,11.90
2022-10-28T19:33:43.179Z,12.23
2022-10-28T19:36:21.501Z,13.27
2022-10-28T19:38:49.785Z,12.73
2022-10-28T19:43:45.890Z,11.93
2022-10-28T19:46:18.049Z,11.52
2022-10-28T19:48:47.063Z,11.73
2022-10-28T19:51:16.635Z,10.73
2022-10-28T19:53:57.737Z,10.23
2022-10-28T19:56:25.321Z,11.55
2022-10-28T19:58:55.676Z,11.60
2022-10-28T20:01:24.421Z,9.50
2022-10-28T20:03:52.375Z,10.48
2022-10-28T20:06:21.235Z,10.80
2022-10-28T20:08:49.244Z,10.18
2022-10-28T20:11:25.898Z,9.55
2022-10-28T20:14:04.836Z,9.23
2022-10-28T20:18:59.168Z,9.95
2022-10-28T20:21:28.525Z,8.68
2022-10-28T20:23:57.352Z,20.50
2022-10-28T20:26:28.969Z,12.00
2022-10-28T20:28:56.516Z,10.57
2022-10-28T20:31:25.383Z,10.15
2022-10-28T20:33:54.636Z,8.23
2022-10-28T20:36:24.512Z,7.80
2022-10-28T20:39:18.802Z,8.00
2022-10-28T20:41:47.834Z,7.70
2022-10-28T20:44:15.168Z,8.15
2022-10-28T20:46:42.129Z,7.82
2022-10-28T20:49:09.827Z,7.63
2022-10-28T20:51:37.211Z,7.18
2022-10-28T20:54:04.075Z,6.70
2022-10-28T20:56:35.157Z,6.93
2022-10-28T20:59:02.021Z,6.95
2022-10-28T21:01:37.766Z,7.45
2022-10-28T21:04:07.380Z,6.63
2022-10-28T21:06:34.737Z,6.55
2022-10-28T21:09:05.118Z,7.07
2022-10-28T21:11:32.560Z,7.05
2022-10-28T21:14:02.646Z,6.72
2022-10-28T21:16:30.394Z,6.22
2022-10-28T21:18:59.031Z,6.90
2022-10-28T21:21:26.552Z,6.28
2022-10-28T21:23:53.705Z,6.78
2022-10-28T21:26:20.716Z,6.70
2022-10-28T21:28:52.385Z,6.13
2022-10-28T21:31:20.903Z,6.53
2022-10-28T21:33:51.103Z,6.82
2022-10-28T21:36:20.289Z,6.10
2022-10-28T21:38:47.408Z,6.00
2022-10-28T21:41:17.469Z,5.80
2022-10-28T21:43:47.757Z,6.32
2022-10-28T21:46:15.649Z,6.43
2022-10-28T21:48:42.850Z,5.70
2022-10-28T21:51:15.207Z,5.80
2022-10-28T21:53:43.481Z,6.05
2022-10-28T22:00:07.002Z,6.03
2022-10-28T22:02:58.522Z,6.05
2022-10-28T22:05:39.225Z,5.45
2022-10-28T22:08:06.074Z,6.35
2022-10-28T22:10:32.777Z,6.22
2022-10-28T22:13:02.492Z,6.57
2022-10-28T22:15:29.170Z,5.88
2022-10-28T22:17:58.720Z,5.53
2022-10-28T22:22:57.555Z,5.75
2022-10-28T22:25:24.523Z,5.83
2022-10-28T22:27:51.251Z,5.88
2022-10-28T22:30:18.022Z,5.72
2022-10-28T22:32:44.699Z,5.43
2022-10-28T22:35:11.404Z,5.40
2022-10-28T22:37:38.147Z,6.00
2022-10-28T22:40:05.796Z,5.57
2022-10-28T22:42:32.494Z,5.40
2022-10-28T22:44:59.164Z,5.03
2022-10-28T22:47:25.897Z,5.43
2022-10-28T22:49:52.701Z,5.32
2022-10-28T22:52:19.473Z,6.05
2022-10-28T22:54:46.218Z,5.47
2022-10-28T22:57:12.942Z,5.10
2022-10-28T22:59:39.696Z,5.10
2022-10-28T23:02:06.687Z,5.40
2022-10-28T23:04:33.515Z,5.55
2022-10-28T23:07:00.247Z,5.10
2022-10-28T23:09:26.975Z,5.00
2022-10-28T23:11:53.708Z,4.93
2022-10-28T23:14:20.387Z,5.40
2022-10-28T23:16:48.920Z,5.40
2022-10-28T23:19:15.631Z,5.40
2022-10-28T23:21:42.440Z,4.80
2022-10-28T23:24:09.241Z,4.30
2022-10-28T23:26:36.190Z,4.88
2022-10-28T23:29:03.192Z,5.00
2022-10-28T23:31:29.997Z,5.78
2022-10-28T23:33:58.071Z,5.07
2022-10-28T23:38:52.519Z,5.07
2022-10-28T23:41:20.845Z,4.80
2022-10-28T23:43:48.636Z,5.07
2022-10-28T23:46:15.562Z,4.60
2022-10-28T23:48:42.473Z,5.30
2022-10-28T23:51:09.319Z,5.32
2022-10-28T23:53:36.162Z,5.10
2022-10-28T23:56:05.691Z,4.90
2022-10-28T23:58:32.404Z,5.10
